Time;durP1;ratioP1;P1;durP2;ratioP2;P2;SDS_P1;SDS_P2;PMS_P1;PMS_P2;Temp;Humidity;BMP_temperature;BMP_pressure;BME280_temperature;BME280_humidity;BME280_pressure;Samples;Min_cycle;Max_cycle;Signal;HPM_P1;HPM_P2
2022/12/08 00:01:40;;;;;;;12.85;7.97;;;0.20;97.20;;;;;;5039663;28;20493;-67
2022/12/08 00:04:06;;;;;;;11.25;7.28;;;0.10;97.80;;;;;;5052256;28;20033;-66
2022/12/08 00:09:40;;;;;;;10.43;6.47;;;0.10;98.00;;;;;;5048157;28;20139;-66
2022/12/08 00:12:11;;;;;;;10.48;5.93;;;0.00;96.60;;;;;;5048048;28;20082;-67
2022/12/08 00:14:39;;;;;;;11.38;7.28;;;0.00;96.20;;;;;;5050873;28;20079;-67
2022/12/08 00:17:06;;;;;;;9.48;6.00;;;0.00;96.40;;;;;;5048578;28;20021;-67
2022/12/08 00:19:32;;;;;;;10.27;6.53;;;-0.10;97.00;;;;;;5054022;28;20314;-66
2022/12/08 00:21:58;;;;;;;13.60;7.25;;;-0.20;96.90;;;;;;5040677;28;20033;-67
2022/12/08 00:24:28;;;;;;;13.73;8.30;;;-0.20;96.00;;;;;;5039175;28;20034;-67
2022/12/08 00:26:54;;;;;;;9.40;6.45;;;-0.30;95.10;;;;;;5056868;28;20033;-67
2022/12/08 00:29:25;;;;;;;12.52;8.02;;;-0.30;94.60;;;;;;5046830;28;20044;-67
2022/12/08 00:31:51;;;;;;;10.48;6.55;;;-0.40;95.00;;;;;;5038858;28;20061;-66
2022/12/08 00:34:17;;;;;;;10.98;6.65;;;-0.40;94.70;;;;;;5040927;28;20056;-67
2022/12/08 00:36:42;;;;;;;11.23;6.32;;;-0.40;94.10;;;;;;5055226;28;20033;-67
2022/12/08 00:39:09;;;;;;;10.90;6.57;;;-0.30;93.20;;;;;;5056526;28;20025;-67
2022/12/08 00:44:19;;;;;;;8.73;5.38;;;-0.20;95.80;;;;;;5037854;28;20485;-67
2022/12/08 00:46:45;;;;;;;8.15;4.90;;;-0.10;97.80;;;;;;5038223;28;20029;-67
2022/12/08 00:49:11;;;;;;;8.85;5.65;;;0.00;98.00;;;;;;5048257;28;20021;-67
2022/12/08 00:51:37;;;;;;;8.40;5.80;;;0.00;98.00;;;;;;5062166;28;20025;-67
2022/12/08 00:54:04;;;;;;;9.73;6.55;;;-0.10;98.00;;;;;;5044320;28;20472;-67
2022/12/08 00:56:30;;;;;;;10.57;7.20;;;0.00;98.00;;;;;;5042367;28;20038;-67
2022/12/08 00:58:56;;;;;;;10.38;6.85;;;0.00;98.00;;;;;;5040765;28;20021;-66
2022/12/08 01:01:25;;;;;;;10.25;6.70;;;-0.10;96.80;;;;;;5042850;28;20035;-67
2022/12/08 01:03:51;;;;;;;8.57;5.50;;;-0.10;96.30;;;;;;5040310;28;20082;-66
2022/12/08 01:06:17;;;;;;;8.45;5.07;;;-0.10;96.60;;;;;;5037331;28;20029;-66
2022/12/08 01:08:43;;;;;;;8.45;5.40;;;-0.20;96.50;;;;;;5042255;28;20029;-66
2022/12/08 01:11:15;;;;;;;8.85;5.72;;;-0.20;96.70;;;;;;5053121;28;20025;-66
2022/12/08 01:13:41;;;;;;;10.88;5.85;;;-0.30;96.30;;;;;;5051820;28;20032;-68
2022/12/08 01:16:07;;;;;;;10.65;6.28;;;-0.30;95.60;;;;;;5053406;28;20029;-68
2022/12/08 01:18:33;;;;;;;8.95;5.93;;;-0.40;95.90;;;;;;5047429;28;20346;-68
2022/12/08 01:21:04;;;;;;;9.48;6.22;;;-0.40;95.70;;;;;;5043175;28;20044;-67
2022/12/08 01:23:30;;;;;;;9.35;6.05;;;-0.50;95.30;;;;;;5048207;28;20080;-67
2022/12/08 01:26:01;;;;;;;11.98;6.30;;;-0.50;94.40;;;;;;5056588;28;20442;-67
2022/12/08 01:28:26;;;;;;;10.88;6.82;;;-0.50;94.40;;;;;;5050812;28;20132;-67
2022/12/08 01:30:52;;;;;;;11.95;7.13;;;-0.50;94.30;;;;;;5041689;28;20108;-67
2022/12/08 01:33:17;;;;;;;13.02;8.00;;;-0.40;94.10;;;;;;5045114;28;20086;-67
2022/12/08 01:35:43;;;;;;;12.60;8.07;;;-0.50;95.20;;;;;;5039087;28;20109;-67
2022/12/08 01:38:08;;;;;;;11.70;7.50;;;-0.60;95.10;;;;;;5045070;28;20410;-67
2022/12/08 01:40:34;;;;;;;8.85;5.30;;;-0.60;94.00;;;;;;5048580;28;20040;-67
2022/12/08 01:42:59;;;;;;;10.27;6.72;;;-0.60;93.20;;;;;;5054991;28;20025;-67
2022/12/08 01:45:31;;;;;;;10.40;6.50;;;-0.60;93.30;;;;;;5048787;28;20342;-67
2022/12/08 01:48:07;;;;;;;11.35;7.38;;;-0.60;92.80;;;;;;5039453;28;20132;-67
2022/12/08 01:50:34;;;;;;;10.98;6.78;;;-0.70;93.00;;;;;;5039902;28;20024;-67
2022/12/08 01:53:29;;;;;;;10.45;6.75;;;-0.70;92.60;;;;;;5056925;28;20434;-67
2022/12/08 01:56:05;;;;;;;9.27;5.72;;;-0.90;92.90;;;;;;5045457;28;20067;-67
2022/12/08 01:58:35;;;;;;;12.65;6.95;;;-0.90;90.50;;;;;;5052026;28;20295;-67
2022/12/08 02:01:01;;;;;;;10.20;6.70;;;-0.90;93.00;;;;;;5038145;28;20116;-67
2022/12/08 02:03:42;;;;;;;9.82;6.03;;;-1.10;92.10;;;;;;5042698;28;20029;-67
2022/12/08 02:06:09;;;;;;;11.15;6.57;;;-1.20;91.00;;;;;;5042219;28;20107;-67
2022/12/08 02:08:37;;;;;;;10.20;6.55;;;-1.30;91.00;;;;;;5044793;28;20021;-67
2022/12/08 02:11:05;;;;;;;10.88;6.57;;;-1.40;90.20;;;;;;5038922;28;20069;-67
2022/12/08 02:13:31;;;;;;;10.90;6.32;;;-1.40;89.20;;;;;;5048391;28;20318;-67
2022/12/08 02:16:07;;;;;;;12.68;8.10;;;-1.50;88.20;;;;;;5035855;28;20020;-66
2022/12/08 02:18:52;;;;;;;12.85;8.15;;;-1.60;87.40;;;;;;5040542;28;20058;-67
2022/12/08 02:21:39;;;;;;;12.93;8.05;;;-1.70;87.20;;;;;;5041752;28;20487;-66
2022/12/08 02:24:28;;;;;;;14.27;7.90;;;-1.70;85.60;;;;;;5042505;28;20048;-66
2022/12/08 02:27:17;;;;;;;10.60;6.88;;;-1.80;86.00;;;;;;5031534;28;20048;-66
2022/12/08 02:29:45;;;;;;;11.23;6.20;;;-1.90;84.50;;;;;;5047463;28;20441;-66
2022/12/08 02:32:30;;;;;;;20.52;7.40;;;-1.90;85.00;;;;;;5043955;28;20025;-67
2022/12/08 02:35:16;;;;;;;11.68;7.88;;;-1.90;84.80;;;;;;5047078;28;20028;-67
2022/12/08 02:38:13;;;;;;;12.95;8.65;;;-1.90;84.70;;;;;;5048128;28;20418;-67
2022/12/08 02:41:03;;;;;;;17.02;10.45;;;-1.90;85.60;;;;;;5050169;28;20441;-66
2022/12/08 02:43:37;;;;;;;15.68;10.25;;;-2.00;87.00;;;;;;5038983;28;20036;-67
2022/12/08 02:46:09;;;;;;;18.05;10.70;;;-2.00;86.80;;;;;;5053899;28;20078;-67
2022/12/08 02:48:35;;;;;;;16.95;11.05;;;-2.00;87.10;;;;;;5048253;28;20029;-66
2022/12/08 02:51:01;;;;;;;19.50;11.68;;;-2.00;87.60;;;;;;5046208;28;20298;-66
2022/12/08 02:53:30;;;;;;;16.85;9.90;;;-2.20;87.30;;;;;;5042764;28;20103;-66
2022/12/08 02:56:29;;;;;;;15.88;9.85;;;-2.30;87.10;;;;;;5051576;28;20021;-66
2022/12/08 02:59:06;;;;;;;17.23;10.52;;;-2.40;84.30;;;;;;5041131;28;20318;-66
2022/12/08 03:01:49;;;;;;;19.73;11.43;;;-2.30;83.60;;;;;;5044789;28;20115;-66
2022/12/08 03:04:26;;;;;;;19.80;11.95;;;-2.30;82.20;;;;;;5058849;28;20036;-66
2022/12/08 03:07:06;;;;;;;17.48;10.90;;;-2.40;82.00;;;;;;5064951;28;20430;-66
2022/12/08 03:09:49;;;;;;;19.88;11.60;;;-2.50;82.90;;;;;;5041597;28;20033;-67
2022/12/08 03:12:27;;;;;;;18.25;11.02;;;-2.70;82.40;;;;;;5042321;28;20041;-66
2022/12/08 03:14:54;;;;;;;17.73;10.93;;;-2.80;81.40;;;;;;5049946;28;20298;-66
2022/12/08 03:17:25;;;;;;;15.45;9.77;;;-2.80;80.50;;;;;;5054569;28;20060;-66
2022/12/08 03:19:53;;;;;;;16.65;9.27;;;-2.80;80.10;;;;;;5051218;28;20056;-67
2022/12/08 03:22:23;;;;;;;14.80;8.65;;;-2.80;79.50;;;;;;5054299;28;20025;-66
2022/12/08 03:24:52;;;;;;;22.27;12.73;;;-2.70;77.80;;;;;;5055721;28;20334;-66
2022/12/08 03:27:24;;;;;;;19.73;11.57;;;-2.70;77.80;;;;;;5055310;28;20054;-66
2022/12/08 03:29:52;;;;;;;20.33;12.95;;;-2.70;78.00;;;;;;5051979;28;20414;-66
2022/12/08 03:32:46;;;;;;;18.05;11.10;;;-2.60;77.40;;;;;;5053688;28;20043;-66
2022/12/08 03:35:16;;;;;;;18.75;11.77;;;-2.60;76.60;;;;;;5035727;28;20053;-66
2022/12/08 03:37:42;;;;;;;21.20;12.43;;;-2.40;75.30;;;;;;5035023;28;20090;-67
2022/12/08 03:40:13;;;;;;;18.50;11.45;;;-2.40;77.40;;;;;;5053264;28;20025;-66
2022/12/08 03:42:39;;;;;;;18.38;10.82;;;-2.60;78.90;;;;;;5052251;28;20049;-66
2022/12/08 03:45:08;;;;;;;18.13;10.55;;;-2.70;79.00;;;;;;5052189;28;20377;-66
2022/12/08 03:47:36;;;;;;;17.00;10.32;;;-2.80;77.60;;;;;;5053491;28;20423;-66
2022/12/08 03:50:03;;;;;;;19.40;11.15;;;-2.70;76.50;;;;;;5036625;28;20030;-66
2022/12/08 03:52:28;;;;;;;17.80;11.23;;;-2.70;76.60;;;;;;5035478;28;20083;-66
2022/12/08 03:54:54;;;;;;;18.35;11.48;;;-2.70;76.90;;;;;;5051611;28;20033;-66
2022/12/08 03:57:20;;;;;;;20.45;11.85;;;-2.60;75.60;;;;;;5054829;28;20025;-66
2022/12/08 03:59:46;;;;;;;22.98;13.05;;;-2.60;76.50;;;;;;5040089;28;20025;-66
2022/12/08 04:02:11;;;;;;;17.83;9.50;;;-2.70;78.10;;;;;;5054961;28;20063;-64
2022/12/08 04:04:37;;;;;;;27.15;10.40;;;-2.90;78.20;;;;;;5052929;28;21265;-65
2022/12/08 04:07:02;;;;;;;18.73;10.60;;;-2.90;76.20;;;;;;5042354;28;20422;-65
2022/12/08 04:09:28;;;;;;;16.48;10.27;;;-2.80;75.90;;;;;;5063240;28;20417;-67
2022/12/08 04:11:54;;;;;;;20.38;11.40;;;-2.90;76.80;;;;;;5056246;28;20052;-67
2022/12/08 04:14:22;;;;;;;20.13;11.50;;;-2.70;74.50;;;;;;5048667;28;20337;-67
2022/12/08 04:16:50;;;;;;;18.77;11.57;;;-2.60;74.90;;;;;;5047853;28;20021;-66
2022/12/08 04:19:16;;;;;;;19.92;11.18;;;-2.60;75.70;;;;;;5047380;28;20418;-66
2022/12/08 04:21:41;;;;;;;17.40;10.02;;;-2.70;75.90;;;;;;5049225;28;20048;-66
2022/12/08 04:24:16;;;;;;;18.30;10.77;;;-2.70;75.70;;;;;;5055188;28;20021;-66
2022/12/08 04:26:42;;;;;;;17.73;10.48;;;-2.80;77.60;;;;;;5048395;28;20048;-67
2022/12/08 04:29:07;;;;;;;15.63;10.32;;;-2.80;76.50;;;;;;5047325;28;20025;-66
2022/12/08 04:31:33;;;;;;;14.25;8.77;;;-2.80;75.40;;;;;;5059062;28;20033;-66
2022/12/08 04:33:58;;;;;;;16.55;9.50;;;-2.70;75.30;;;;;;5054926;28;20028;-66
2022/12/08 04:36:24;;;;;;;13.70;7.72;;;-2.80;76.70;;;;;;5041925;28;20429;-65
2022/12/08 04:38:49;;;;;;;13.95;8.32;;;-2.90;77.60;;;;;;5037555;28;20060;-66
2022/12/08 04:41:15;;;;;;;14.70;8.93;;;-3.00;76.30;;;;;;5048669;28;20422;-66
2022/12/08 04:43:43;;;;;;;14.27;8.60;;;-2.90;75.50;;;;;;5055307;28;20061;-66
2022/12/08 04:46:09;;;;;;;14.38;9.27;;;-2.90;76.40;;;;;;5056957;28;20024;-66
2022/12/08 04:48:38;;;;;;;14.10;8.23;;;-3.00;77.70;;;;;;5055510;28;20037;-66
2022/12/08 04:51:04;;;;;;;13.60;7.72;;;-3.10;77.10;;;;;;5051801;28;20064;-66
2022/12/08 04:53:30;;;;;;;15.75;8.80;;;-3.10;77.00;;;;;;5055155;28;20053;-66
2022/12/08 04:55:56;;;;;;;16.50;8.98;;;-3.10;77.10;;;;;;5057523;28;20028;-65
2022/12/08 04:58:23;;;;;;;13.10;7.95;;;-3.00;76.00;;;;;;5052526;28;20029;-66
2022/12/08 05:00:49;;;;;;;14.23;7.80;;;-2.90;76.40;;;;;;5057590;28;20037;-66
2022/12/08 05:03:16;;;;;;;11.30;7.20;;;-2.90;77.20;;;;;;5055734;28;20063;-66
2022/12/08 05:05:42;;;;;;;14.00;7.93;;;-3.00;79.20;;;;;;5055576;28;20044;-65
2022/12/08 05:08:09;;;;;;;12.45;7.15;;;-3.10;79.20;;;;;;5053257;28;20330;-66
2022/12/08 05:10:35;;;;;;;14.00;7.53;;;-3.20;79.10;;;;;;5053333;28;20025;-65
2022/12/08 05:13:00;;;;;;;11.65;7.22;;;-3.20;78.10;;;;;;5051822;28;20104;-66
2022/12/08 05:15:26;;;;;;;9.85;6.43;;;-3.10;77.30;;;;;;5054421;28;20124;-65
2022/12/08 05:17:52;;;;;;;12.32;7.43;;;-3.10;77.50;;;;;;5054677;28;20310;-65
2022/12/08 05:20:18;;;;;;;13.55;8.15;;;-3.00;76.80;;;;;;5041624;28;20038;-65
2022/12/08 05:22:43;;;;;;;12.48;7.28;;;-2.90;77.00;;;;;;5054923;28;20112;-66
2022/12/08 05:25:09;;;;;;;15.07;9.85;;;-2.80;78.20;;;;;;5057176;28;20388;-66
2022/12/08 05:27:35;;;;;;;15.90;9.95;;;-2.90;79.90;;;;;;5054203;28;20033;-67
2022/12/08 05:30:01;;;;;;;14.43;8.05;;;-3.00;80.00;;;;;;5055862;28;20459;-65
2022/12/08 05:32:27;;;;;;;14.48;6.80;;;-3.00;78.70;;;;;;5053229;28;20029;-65
2022/12/08 05:34:52;;;;;;;18.70;7.88;;;-3.00;79.20;;;;;;5046360;28;20056;-66
2022/12/08 05:37:18;;;;;;;16.02;8.85;;;-3.00;81.00;;;;;;5043358;28;20051;-65
2022/12/08 05:39:43;;;;;;;13.88;8.48;;;-3.10;80.40;;;;;;5062040;28;20709;-66
2022/12/08 05:42:09;;;;;;;15.52;9.65;;;-3.20;79.10;;;;;;5052214;28;20029;-66
2022/12/08 05:44:35;;;;;;;12.45;6.65;;;-3.00;78.10;;;;;;5053350;28;20033;-66
2022/12/08 05:47:00;;;;;;;13.30;7.97;;;-2.90;78.90;;;;;;5055679;28;20040;-66
2022/12/08 05:49:26;;;;;;;14.13;7.10;;;-2.90;80.70;;;;;;5046529;28;20422;-66
2022/12/08 05:51:52;;;;;;;14.98;7.25;;;-3.00;80.90;;;;;;5057100;28;20028;-66
2022/12/08 05:54:17;;;;;;;15.18;7.25;;;-3.00;80.30;;;;;;5038044;28;20311;-66
2022/12/08 05:56:43;;;;;;;15.38;7.70;;;-3.00;81.30;;;;;;5036951;28;20033;-66
2022/12/08 05:59:09;;;;;;;16.20;9.75;;;-3.10;82.20;;;;;;5056204;28;20024;-66
2022/12/08 06:01:34;;;;;;;14.82;9.02;;;-3.30;82.90;;;;;;5059503;28;20525;-66
2022/12/08 06:04:02;;;;;;;13.63;7.03;;;-3.40;82.40;;;;;;5048311;28;20033;-66
2022/12/08 06:06:28;;;;;;;11.43;6.18;;;-3.30;80.00;;;;;;5055722;28;20322;-65
2022/12/08 06:08:54;;;;;;;11.27;5.97;;;-3.30;80.30;;;;;;5052126;28;20051;-66
2022/12/08 06:11:22;;;;;;;21.90;11.85;;;-3.20;80.10;;;;;;5054431;28;20033;-66
2022/12/08 06:13:48;;;;;;;34.25;21.33;;;-3.10;80.40;;;;;;5043468;28;20052;-66
2022/12/08 06:16:14;;;;;;;19.70;11.73;;;-3.20;81.50;;;;;;5036788;28;20052;-66
2022/12/08 06:18:40;;;;;;;16.60;8.50;;;-3.20;82.30;;;;;;5045443;28;20437;-66
2022/12/08 06:21:07;;;;;;;16.17;9.20;;;-3.40;82.80;;;;;;5056616;28;20048;-66
2022/12/08 06:23:33;;;;;;;21.27;12.20;;;-3.50;82.60;;;;;;5047257;28;20060;-66
2022/12/08 06:26:07;;;;;;;24.83;13.98;;;-3.50;80.70;;;;;;5035714;28;20473;-66
2022/12/08 06:28:33;;;;;;;23.05;12.30;;;-3.40;80.30;;;;;;5035056;28;20104;-66
2022/12/08 06:30:59;;;;;;;16.25;9.18;;;-3.40;80.70;;;;;;5036223;28;20338;-66
2022/12/08 06:33:25;;;;;;;17.13;9.35;;;-3.40;79.70;;;;;;5046746;28;20017;-66
2022/12/08 06:35:52;;;;;;;16.77;9.23;;;-3.40;79.80;;;;;;5055181;28;20437;-66
2022/12/08 06:38:18;;;;;;;22.25;12.23;;;-3.40;81.50;;;;;;5041547;28;20025;-66
2022/12/08 06:40:53;;;;;;;15.18;8.27;;;-3.50;82.70;;;;;;5050158;28;20032;-66
2022/12/08 06:43:19;;;;;;;17.48;9.73;;;-3.60;82.50;;;;;;5053067;28;20029;-65
2022/12/08 06:45:44;;;;;;;19.20;10.52;;;-3.50;81.20;;;;;;5036335;28;20052;-66
2022/12/08 06:48:10;;;;;;;18.73;10.80;;;-3.40;81.10;;;;;;5035293;28;20084;-65
2022/12/08 06:50:35;;;;;;;23.15;12.32;;;-3.40;81.30;;;;;;5037702;28;20112;-65
2022/12/08 06:53:01;;;;;;;19.33;10.95;;;-3.40;82.90;;;;;;5056096;28;20052;-65
2022/12/08 06:55:27;;;;;;;19.63;12.05;;;-3.50;83.90;;;;;;5054852;28;20028;-64
2022/12/08 06:57:53;;;;;;;23.95;13.68;;;-3.50;82.00;;;;;;5055079;28;20021;-65
2022/12/08 07:00:19;;;;;;;30.25;15.60;;;-3.40;80.20;;;;;;5051013;28;20445;-65
2022/12/08 07:02:44;;;;;;;28.33;15.52;;;-3.20;79.30;;;;;;5055815;28;20028;-64
2022/12/08 07:05:10;;;;;;;27.30;15.63;;;-3.00;77.40;;;;;;5040630;28;20044;-66
2022/12/08 07:07:35;;;;;;;30.30;16.88;;;-2.80;76.70;;;;;;5035805;28;20101;-66
2022/12/08 07:10:01;;;;;;;23.95;13.07;;;-2.70;77.10;;;;;;5035612;28;20060;-66
2022/12/08 07:12:29;;;;;;;28.35;17.20;;;-2.60;76.70;;;;;;5035700;28;20025;-66
2022/12/08 07:14:57;;;;;;;24.50;15.95;;;-2.60;77.60;;;;;;5034655;28;20076;-66
2022/12/08 07:17:23;;;;;;;29.52;17.40;;;-2.60;77.60;;;;;;5035787;28;20362;-66
2022/12/08 07:19:49;;;;;;;28.23;18.52;;;-2.60;77.60;;;;;;5036089;28;20033;-65
2022/12/08 07:22:14;;;;;;;27.38;18.73;;;-2.50;78.00;;;;;;5035705;28;20080;-65
2022/12/08 07:24:40;;;;;;;28.90;19.60;;;-2.40;78.10;;;;;;5044051;28;20318;-65
2022/12/08 07:27:06;;;;;;;29.15;20.15;;;-2.30;77.70;;;;;;5055410;28;20106;-65
2022/12/08 07:29:31;;;;;;;21.30;15.23;;;-2.20;76.90;;;;;;5044631;28;20033;-65
2022/12/08 07:31:57;;;;;;;23.73;14.52;;;-2.10;76.50;;;;;;5055667;28;20045;-65
2022/12/08 07:34:22;;;;;;;19.90;12.07;;;-2.00;77.50;;;;;;5047777;28;20488;-65
2022/12/08 07:36:48;;;;;;;20.20;12.90;;;-1.90;77.20;;;;;;5035836;28;20021;-65
2022/12/08 07:39:14;;;;;;;19.65;11.43;;;-1.80;77.60;;;;;;5042271;28;20036;-65
2022/12/08 07:41:42;;;;;;;20.77;11.10;;;-1.80;78.10;;;;;;5059871;28;20104;-65
2022/12/08 07:44:08;;;;;;;16.67;10.00;;;-1.70;77.00;;;;;;5042715;28;20068;-65
2022/12/08 07:46:33;;;;;;;16.27;10.55;;;-1.50;75.80;;;;;;5047187;28;20083;-65
2022/12/08 07:48:59;;;;;;;19.33;11.32;;;-1.50;78.10;;;;;;5056905;28;20032;-65
2022/12/08 07:51:25;;;;;;;17.58;10.63;;;-1.40;78.90;;;;;;5058399;28;20068;-65
2022/12/08 07:53:50;;;;;;;18.38;11.07;;;-1.40;78.90;;;;;;5051767;28;20512;-65
2022/12/08 07:56:16;;;;;;;19.13;11.98;;;-1.40;78.10;;;;;;5039621;28;20029;-65
2022/12/08 07:58:44;;;;;;;26.88;17.17;;;-1.30;77.90;;;;;;5038766;28;20377;-65
2022/12/08 08:01:29;;;;;;;38.85;24.15;;;-1.20;77.30;;;;;;5039304;28;20418;-65
2022/12/08 08:03:57;;;;;;;28.65;19.08;;;-1.10;76.90;;;;;;5045200;28;20035;-66
2022/12/08 08:06:23;;;;;;;18.83;11.73;;;-1.10;78.80;;;;;;5057769;28;20123;-65
2022/12/08 08:08:49;;;;;;;24.80;14.48;;;-0.90;76.00;;;;;;5058421;28;20040;-65
2022/12/08 08:11:15;;;;;;;43.47;25.90;;;-0.90;79.00;;;;;;5049062;28;20026;-65
2022/12/08 08:13:43;;;;;;;56.90;33.65;;;-0.90;77.50;;;;;;5082790;28;20025;-65
2022/12/08 08:16:09;;;;;;;41.25;26.15;;;-0.80;79.70;;;;;;5058100;28;20033;-64
2022/12/08 08:18:36;;;;;;;35.90;23.92;;;-0.70;79.40;;;;;;5058945;28;20107;-64
2022/12/08 08:21:03;;;;;;;24.65;15.90;;;-0.60;78.60;;;;;;5059207;28;20032;-65
2022/12/08 08:23:29;;;;;;;17.52;10.57;;;-0.50;78.50;;;;;;5058841;28;20047;-65
2022/12/08 08:25:58;;;;;;;21.17;11.75;;;-0.30;76.60;;;;;;5055865;28;20441;-65
2022/12/08 08:28:24;;;;;;;25.23;13.30;;;-0.10;78.50;;;;;;5046857;28;20087;-65
2022/12/08 08:30:49;;;;;;;21.95;14.50;;;-0.10;83.70;;;;;;5050297;28;20029;-65
2022/12/08 08:33:15;;;;;;;17.15;11.38;;;-0.20;87.00;;;;;;5067372;28;20025;-65
2022/12/08 08:35:41;;;;;;;14.80;9.20;;;-0.20;87.60;;;;;;5038671;28;20653;-65
2022/12/08 08:38:07;;;;;;;15.25;9.63;;;-0.20;92.00;;;;;;5045863;28;20204;-65
2022/12/08 08:40:32;;;;;;;18.45;9.35;;;-0.20;93.20;;;;;;5058554;28;20124;-65
2022/12/08 08:43:00;;;;;;;15.80;9.82;;;-0.10;94.50;;;;;;5057320;28;20039;-64
2022/12/08 08:45:26;;;;;;;14.30;9.10;;;-0.10;95.60;;;;;;5040611;28;20037;-64
2022/12/08 08:47:52;;;;;;;14.77;9.25;;;-0.10;96.10;;;;;;5056676;28;20048;-65
2022/12/08 08:50:17;;;;;;;14.70;9.10;;;-0.20;97.30;;;;;;5058145;28;20025;-64
2022/12/08 08:52:43;;;;;;;13.82;8.70;;;-0.20;98.00;;;;;;5040758;28;20487;-65
2022/12/08 08:55:09;;;;;;;15.18;9.95;;;-0.20;98.00;;;;;;5058321;28;20029;-65
2022/12/08 08:57:34;;;;;;;15.95;9.13;;;-0.20;98.00;;;;;;5055520;28;20068;-65
2022/12/08 09:00:00;;;;;;;13.82;8.60;;;-0.20;98.00;;;;;;5056789;28;20329;-65
2022/12/08 09:02:26;;;;;;;16.30;10.65;;;-0.10;98.00;;;;;;5054834;28;20056;-65
2022/12/08 09:04:54;;;;;;;12.50;7.75;;;-0.10;98.00;;;;;;5057244;28;20028;-65
2022/12/08 09:07:20;;;;;;;13.98;8.85;;;0.00;98.00;;;;;;5043656;28;20041;-65
2022/12/08 09:09:45;;;;;;;13.95;8.40;;;0.00;98.00;;;;;;5038205;28;20037;-65
2022/12/08 09:12:12;;;;;;;11.77;7.47;;;0.10;98.00;;;;;;5049186;28;20032;-65
2022/12/08 09:14:37;;;;;;;13.70;7.72;;;0.10;98.00;;;;;;5055404;28;20119;-65
2022/12/08 09:17:04;;;;;;;13.07;7.78;;;0.40;98.00;;;;;;5053607;28;20100;-65
2022/12/08 09:19:29;;;;;;;13.05;7.63;;;0.80;98.00;;;;;;5056845;28;20037;-65
2022/12/08 09:21:58;;;;;;;10.48;6.10;;;1.20;98.00;;;;;;5057806;28;20075;-65
2022/12/08 09:24:23;;;;;;;14.07;7.82;;;1.60;98.00;;;;;;5057716;28;20037;-65
2022/12/08 09:26:49;;;;;;;14.68;7.75;;;1.60;98.00;;;;;;5057577;28;20052;-65
2022/12/08 09:29:16;;;;;;;10.60;6.15;;;1.60;98.00;;;;;;5055466;28;20025;-65
2022/12/08 09:31:42;;;;;;;11.88;6.10;;;2.20;98.00;;;;;;5048281;28;20031;-65
2022/12/08 09:34:09;;;;;;;7.40;4.60;;;3.20;98.00;;;;;;5054375;28;20486;-65
2022/12/08 09:36:41;;;;;;;10.00;4.63;;;3.90;95.10;;;;;;5052724;28;20039;-65
2022/12/08 09:39:07;;;;;;;6.53;4.07;;;4.00;93.70;;;;;;5056750;28;20025;-65
2022/12/08 09:41:48;;;;;;;9.90;3.88;;;4.30;92.80;;;;;;5056415;28;20029;-65
2022/12/08 09:44:41;;;;;;;8.90;4.20;;;5.00;92.30;;;;;;5055022;28;20445;-65
2022/12/08 09:47:20;;;;;;;8.77;4.53;;;5.90;89.00;;;;;;5039722;28;20037;-65
2022/12/08 09:49:55;;;;;;;7.53;4.53;;;5.10;86.10;;;;;;5037362;28;20088;-65
2022/12/08 09:52:30;;;;;;;17.30;9.52;;;4.20;88.20;;;;;;5045847;28;20025;-65
2022/12/08 09:55:02;;;;;;;12.98;6.97;;;3.60;89.90;;;;;;5051025;28;20029;-64
2022/12/08 09:57:29;;;;;;;18.52;9.50;;;3.10;91.60;;;;;;5054470;28;20295;-65
2022/12/08 10:00:00;;;;;;;16.50;7.70;;;3.00;92.90;;;;;;5038056;28;20029;-67
2022/12/08 10:02:28;;;;;;;17.75;9.93;;;3.00;93.00;;;;;;5056006;28;20037;-66
2022/12/08 10:04:56;;;;;;;10.48;6.05;;;3.00;93.30;;;;;;5048277;28;20031;-66
2022/12/08 10:07:37;;;;;;;28.65;14.10;;;2.90;92.60;;;;;;5045362;28;20037;-66
2022/12/08 10:10:15;;;;;;;16.48;9.07;;;3.00;92.60;;;;;;5050508;28;20065;-66
2022/12/08 10:12:53;;;;;;;10.95;6.60;;;3.00;92.50;;;;;;5048035;28;20075;-66
2022/12/08 10:15:40;;;;;;;23.15;17.23;;;2.60;93.40;;;;;;5055752;28;20059;-64
2022/12/08 10:18:16;;;;;;;10.82;7.72;;;2.40;95.20;;;;;;5056833;28;20108;-65
2022/12/08 10:20:45;;;;;;;12.05;7.63;;;2.30;95.20;;;;;;5052789;28;20112;-65
2022/12/08 10:23:34;;;;;;;12.80;8.27;;;2.00;96.00;;;;;;5055311;28;20441;-65
2022/12/08 10:26:01;;;;;;;13.95;9.00;;;1.80;96.10;;;;;;5051728;28;20113;-64
2022/12/08 10:28:27;;;;;;;12.02;7.55;;;1.60;96.60;;;;;;5052735;28;20029;-65
2022/12/08 10:30:52;;;;;;;11.43;8.00;;;1.40;97.10;;;;;;5052615;28;20318;-65
2022/12/08 10:33:20;;;;;;;9.60;5.97;;;1.20;97.20;;;;;;5056528;28;20032;-65
2022/12/08 10:35:52;;;;;;;12.82;5.70;;;1.10;97.60;;;;;;5056329;28;20075;-64
2022/12/08 10:38:28;;;;;;;10.55;6.00;;;1.20;97.60;;;;;;5048681;28;20025;-65
2022/12/08 10:41:08;;;;;;;11.18;7.05;;;1.00;97.00;;;;;;5042018;28;20029;-65
2022/12/08 10:43:56;;;;;;;10.63;6.75;;;1.00;97.70;;;;;;5050955;28;20080;-64
2022/12/08 10:46:26;;;;;;;16.42;10.80;;;1.10;97.80;;;;;;5043189;28;20299;-65
2022/12/08 10:49:02;;;;;;;9.43;5.50;;;1.10;97.50;;;;;;5056228;28;20115;-65
2022/12/08 10:51:32;;;;;;;13.20;5.90;;;1.10;97.70;;;;;;5044931;28;20033;-65
2022/12/08 10:53:58;;;;;;;18.88;11.85;;;1.10;97.90;;;;;;5049090;28;20032;-65
2022/12/08 10:56:27;;;;;;;9.07;5.22;;;1.20;98.00;;;;;;5043279;28;20017;-65
2022/12/08 10:59:11;;;;;;;9.60;5.35;;;1.40;98.00;;;;;;5034841;28;20056;-65
2022/12/08 11:01:41;;;;;;;13.25;8.27;;;1.50;96.00;;;;;;5036113;28;20025;-65
2022/12/08 11:04:22;;;;;;;10.82;6.82;;;1.50;96.30;;;;;;5048340;28;20066;-65
2022/12/08 11:06:49;;;;;;;10.55;5.82;;;1.50;96.90;;;;;;5056006;28;20057;-64
2022/12/08 11:09:15;;;;;;;11.30;7.10;;;1.60;96.00;;;;;;5040831;28;20029;-64
2022/12/08 11:11:50;;;;;;;11.05;6.57;;;1.60;95.90;;;;;;5035632;28;20029;-65
2022/12/08 11:14:54;;;;;;;10.18;5.35;;;1.80;96.20;;;;;;5035337;28;20423;-65
2022/12/08 11:17:23;;;;;;;17.33;8.48;;;1.90;94.80;;;;;;5054331;28;20044;-65
2022/12/08 11:20:01;;;;;;;18.05;10.00;;;2.20;94.60;;;;;;5054440;28;20063;-65
2022/12/08 11:22:37;;;;;;;25.63;13.55;;;2.20;94.50;;;;;;5053497;28;20037;-65
2022/12/08 11:25:24;;;;;;;15.40;9.38;;;2.20;94.30;;;;;;5049724;28;20366;-65
2022/12/08 11:27:59;;;;;;;11.75;8.18;;;2.00;94.50;;;;;;5050374;28;20368;-65
2022/12/08 11:30:29;;;;;;;9.95;5.85;;;1.80;94.80;;;;;;5050386;28;20311;-65
2022/12/08 11:33:13;;;;;;;10.23;4.93;;;2.30;95.00;;;;;;5051209;28;20033;-65
2022/12/08 11:35:42;;;;;;;8.65;5.45;;;2.60;92.90;;;;;;5053787;28;20028;-65
2022/12/08 11:38:14;;;;;;;9.18;5.25;;;2.60;92.40;;;;;;5055486;28;20079;-65
2022/12/08 11:40:43;;;;;;;11.00;5.97;;;2.60;92.40;;;;;;5055546;28;20021;-65
2022/12/08 11:43:30;;;;;;;9.85;5.40;;;2.40;92.70;;;;;;5044239;28;20040;-65
2022/12/08 11:46:03;;;;;;;10.35;5.88;;;2.00;93.30;;;;;;5049001;28;20033;-65
2022/12/08 11:48:32;;;;;;;8.48;5.30;;;1.90;94.00;;;;;;5050147;28;20032;-65
2022/12/08 11:51:05;;;;;;;15.20;8.48;;;1.70;94.10;;;;;;5040495;28;20041;-65
2022/12/08 11:53:34;;;;;;;11.45;5.78;;;1.50;95.00;;;;;;5035407;28;20410;-65
2022/12/08 11:56:23;;;;;;;13.30;6.78;;;1.40;95.30;;;;;;5035567;28;20111;-65
2022/12/08 11:59:25;;;;;;;10.45;6.00;;;1.30;95.80;;;;;;5034472;28;20108;-65
2022/12/08 12:01:51;;;;;;;9.27;4.78;;;1.30;96.10;;;;;;5050219;28;20033;-65
2022/12/08 12:04:34;;;;;;;9.85;4.82;;;1.20;95.20;;;;;;5052470;28;20031;-65
2022/12/08 12:07:15;;;;;;;13.57;5.90;;;1.20;95.60;;;;;;5045140;28;20025;-65
2022/12/08 12:10:06;;;;;;;9.80;6.05;;;1.20;95.60;;;;;;5049239;28;20033;-65
2022/12/08 12:13:03;;;;;;;10.95;6.20;;;1.20;95.40;;;;;;5053055;28;20025;-65
2022/12/08 12:16:06;;;;;;;17.00;12.82;;;1.30;95.20;;;;;;5053166;28;20322;-64
2022/12/08 12:18:34;;;;;;;9.18;6.32;;;1.30;95.10;;;;;;5052501;28;20017;-64
2022/12/08 12:21:27;;;;;;;12.50;8.25;;;1.30;94.90;;;;;;5043861;28;20032;-65
2022/12/08 12:23:52;;;;;;;10.68;5.53;;;1.40;94.80;;;;;;5036880;28;20075;-64
2022/12/08 12:26:24;;;;;;;11.23;6.10;;;1.50;95.30;;;;;;5038756;28;20049;-65
2022/12/08 12:29:06;;;;;;;12.15;7.28;;;1.60;94.20;;;;;;5036726;28;20295;-65
2022/12/08 12:31:40;;;;;;;11.63;6.28;;;1.60;94.50;;;;;;5055146;28;20025;-64
2022/12/08 12:34:30;;;;;;;13.70;8.38;;;1.80;94.00;;;;;;5058770;28;20410;-64
2022/12/08 12:37:17;;;;;;;12.50;7.20;;;1.90;94.00;;;;;;5057721;28;20063;-65
2022/12/08 12:39:52;;;;;;;10.63;6.80;;;2.00;93.30;;;;;;5053656;28;20445;-65
2022/12/08 12:42:38;;;;;;;17.45;10.80;;;2.00;93.60;;;;;;5053017;28;20059;-65
2022/12/08 12:45:25;;;;;;;9.02;4.97;;;2.00;93.80;;;;;;5041383;28;20044;-64
2022/12/08 12:47:50;;;;;;;14.35;9.25;;;2.00;92.90;;;;;;5053528;28;20079;-64
2022/12/08 12:50:47;;;;;;;11.50;7.57;;;1.90;92.80;;;;;;5038451;28;20030;-64
2022/12/08 12:53:15;;;;;;;14.50;8.93;;;2.00;93.40;;;;;;5045297;28;20021;-67
2022/12/08 12:55:44;;;;;;;13.82;8.63;;;2.00;93.10;;;;;;5043162;28;20033;-66
2022/12/08 12:58:28;;;;;;;14.60;8.90;;;1.90;93.60;;;;;;5044515;28;20797;-66
2022/12/08 13:01:36;;;;;;;21.45;12.88;;;2.00;93.40;;;;;;5058301;28;20025;-65